Time;durP1;ratioP1;P1;durP2;ratioP2;P2;SDS_P1;SDS_P2;PMS_P1;PMS_P2;Temp;Humidity;BMP_temperature;BMP_pressure;BME280_temperature;BME280_humidity;BME280_pressure;Samples;Min_cycle;Max_cycle;Signal;HPM_P1;HPM_P2
2022/08/04 08:02:29;;;;;;;6.75;2.00;;;19.50;92.20;;;;;;5090736;27;20398;-51
2022/08/04 08:04:56;;;;;;;8.52;2.28;;;19.50;91.90;;;;;;5074306;28;20047;-52
2022/08/04 08:07:23;;;;;;;8.15;2.00;;;19.60;91.50;;;;;;5070447;28;20037;-54
2022/08/04 08:09:50;;;;;;;9.13;2.10;;;19.70;91.30;;;;;;5070450;28;20068;-57
2022/08/04 08:12:16;;;;;;;9.20;2.20;;;19.80;91.40;;;;;;5075925;28;20094;-55
2022/08/04 08:15:03;;;;;;;7.15;2.17;;;19.90;90.90;;;;;;5070438;28;20044;-58
2022/08/04 08:17:30;;;;;;;7.10;1.90;;;20.00;90.70;;;;;;5070551;28;20496;-48
2022/08/04 08:20:17;;;;;;;8.55;2.20;;;20.00;90.20;;;;;;5068483;28;20068;-50
2022/08/04 08:22:55;;;;;;;12.23;2.50;;;20.10;90.50;;;;;;5072319;28;20041;-53
2022/08/04 08:25:22;;;;;;;7.80;2.13;;;20.10;90.50;;;;;;5069802;28;20041;-50
2022/08/04 08:27:49;;;;;;;7.72;2.20;;;20.10;90.50;;;;;;5067120;28;20488;-55
2022/08/04 08:30:22;;;;;;;8.30;2.60;;;20.20;90.20;;;;;;5053274;28;20041;-55
2022/08/04 08:32:49;;;;;;;5.97;2.03;;;20.20;90.10;;;;;;5069696;28;20044;-56
2022/08/04 08:35:16;;;;;;;8.75;2.30;;;20.20;89.80;;;;;;5069541;28;20037;-59
2022/08/04 08:37:42;;;;;;;9.45;2.25;;;20.20;89.00;;;;;;5070005;28;20517;-54
2022/08/04 08:40:09;;;;;;;7.28;2.00;;;20.20;89.20;;;;;;5069902;28;20040;-57
2022/08/04 08:42:36;;;;;;;7.18;2.08;;;20.10;89.80;;;;;;5069712;28;20033;-54
2022/08/04 08:45:03;;;;;;;9.93;2.15;;;20.30;89.30;;;;;;5065178;28;20484;-55
2022/08/04 08:47:29;;;;;;;8.23;2.20;;;20.30;88.60;;;;;;5066213;28;20045;-49
2022/08/04 08:50:16;;;;;;;8.38;2.20;;;20.40;88.70;;;;;;5066267;28;20102;-52
2022/08/04 08:52:43;;;;;;;9.90;2.42;;;20.30;88.00;;;;;;5069344;28;20045;-49
2022/08/04 08:55:30;;;;;;;5.72;1.80;;;20.40;88.40;;;;;;5069427;28;20051;-52
2022/08/04 08:57:56;;;;;;;7.65;1.92;;;20.50;87.80;;;;;;5074698;28;20043;-48
2022/08/04 09:00:25;;;;;;;6.18;2.05;;;20.60;87.20;;;;;;5069014;28;20094;-55
2022/08/04 09:02:57;;;;;;;8.32;2.13;;;20.60;86.40;;;;;;5069146;28;20051;-48
2022/08/04 09:05:31;;;;;;;6.55;1.95;;;20.60;86.60;;;;;;5069207;28;20045;-54
2022/08/04 09:07:57;;;;;;;6.93;2.05;;;20.50;87.30;;;;;;5051448;28;20456;-52
2022/08/04 09:10:24;;;;;;;5.07;1.73;;;20.60;87.10;;;;;;5069089;28;20040;-48
2022/08/04 09:12:52;;;;;;;7.50;2.15;;;20.70;87.30;;;;;;5061422;28;20041;-59
2022/08/04 09:15:19;;;;;;;9.15;2.38;;;20.80;87.20;;;;;;5055334;28;20107;-55
2022/08/04 09:17:46;;;;;;;8.20;2.05;;;21.00;86.00;;;;;;5055230;28;20045;-52
2022/08/04 09:20:12;;;;;;;6.32;2.03;;;21.20;85.60;;;;;;5053523;28;20099;-59
2022/08/04 09:22:39;;;;;;;8.02;2.00;;;21.30;85.40;;;;;;5060387;28;20381;-50
2022/08/04 09:25:06;;;;;;;7.32;1.92;;;21.30;85.40;;;;;;5054980;28;20488;-59
2022/08/04 09:27:33;;;;;;;9.93;2.25;;;21.40;85.50;;;;;;5059340;28;20098;-51
2022/08/04 09:29:59;;;;;;;6.65;1.85;;;21.40;83.30;;;;;;5055667;28;20106;-54
2022/08/04 09:32:27;;;;;;;7.72;1.92;;;21.50;83.50;;;;;;5055621;28;20385;-55
2022/08/04 09:34:53;;;;;;;6.93;1.83;;;21.50;83.70;;;;;;5059034;28;20099;-50
2022/08/04 09:37:34;;;;;;;8.75;1.77;;;21.70;81.90;;;;;;5049382;28;20098;-58
2022/08/04 09:40:12;;;;;;;5.55;1.85;;;21.70;82.80;;;;;;5053311;28;20125;-52
2022/08/04 09:42:56;;;;;;;5.32;1.73;;;21.80;82.20;;;;;;5053334;28;20462;-49
2022/08/04 09:45:24;;;;;;;6.50;1.77;;;22.00;82.00;;;;;;5053086;28;20099;-48
2022/08/04 09:48:02;;;;;;;6.78;1.60;;;22.10;81.00;;;;;;5053016;28;20040;-55
2022/08/04 09:50:28;;;;;;;5.20;1.42;;;22.10;80.60;;;;;;5053029;28;20407;-52
2022/08/04 09:52:55;;;;;;;7.43;1.52;;;22.10;80.10;;;;;;5054186;28;20051;-51
2022/08/04 09:55:22;;;;;;;5.90;1.63;;;22.10;80.80;;;;;;5054944;28;20480;-60
2022/08/04 09:57:49;;;;;;;4.53;1.40;;;22.20;80.30;;;;;;5055018;28;20037;-48
2022/08/04 10:00:16;;;;;;;6.35;1.65;;;22.30;80.40;;;;;;5054915;28;20079;-54
